Kearneysville, West Virginia
Current Conditions -  °F | °C
As of 4:53 PM on Sunday 21 Dec 2014 (Local Time) from KMRB Reporting Station
Clear Clear  
Wind Chill: -1°   Ceiling: Unl
Heat Index:   Visibility: 10mi
Dew Point: -6°   Wind: 7mph
Humidity: 55%   Direction: 70°ENE
Pressure: 30.28"   Gusts: NA
Location:  39.39°N, 77.89°W
Report Text: KMRB 212153Z AUTO 07006KT 10SM CLR 02/M06 A3028 RMK AO2 SLP259 T00221061 TSNO
Loading
Personal Weather Stations






























Interactive Weather Map New forecast layout! Learn more

10-Day Weather Forecast

Advertisements
Track Severe Weather on mobile